sensor_id;sensor_type;location;lat;lon;timestamp;temperature;humidity
15777;DHT22;7989;51.198;6.676;2023-12-04T00:00:51;0.40;99.90
15777;DHT22;7989;51.198;6.676;2023-12-04T00:03:18;0.40;99.90
15777;DHT22;7989;51.198;6.676;2023-12-04T00:05:45;0.40;99.90
15777;DHT22;7989;51.198;6.676;2023-12-04T00:08:11;0.40;99.90
15777;DHT22;7989;51.198;6.676;2023-12-04T00:10:38;0.40;99.90
15777;DHT22;7989;51.198;6.676;2023-12-04T00:13:05;0.40;99.90
15777;DHT22;7989;51.198;6.676;2023-12-04T00:15:32;0.40;99.90
15777;DHT22;7989;51.198;6.676;2023-12-04T00:17:59;0.40;99.90
15777;DHT22;7989;51.198;6.676;2023-12-04T00:20:26;0.40;99.90
15777;DHT22;7989;51.198;6.676;2023-12-04T00:22:53;0.40;99.90
15777;DHT22;7989;51.198;6.676;2023-12-04T00:25:20;0.50;99.90
15777;DHT22;7989;51.198;6.676;2023-12-04T00:27:46;0.50;99.90
15777;DHT22;7989;51.198;6.676;2023-12-04T00:30:13;0.50;99.90
15777;DHT22;7989;51.198;6.676;2023-12-04T00:32:41;0.50;99.90
15777;DHT22;7989;51.198;6.676;2023-12-04T00:35:08;0.50;99.90
15777;DHT22;7989;51.198;6.676;2023-12-04T00:37:35;0.60;99.90
15777;DHT22;7989;51.198;6.676;2023-12-04T00:40:05;0.50;99.90
15777;DHT22;7989;51.198;6.676;2023-12-04T00:42:32;0.50;99.90
15777;DHT22;7989;51.198;6.676;2023-12-04T00:44:59;0.50;99.90
15777;DHT22;7989;51.198;6.676;2023-12-04T00:47:26;0.50;99.90
15777;DHT22;7989;51.198;6.676;2023-12-04T00:49:54;0.50;99.90
15777;DHT22;7989;51.198;6.676;2023-12-04T00:52:21;0.50;99.90
15777;DHT22;7989;51.198;6.676;2023-12-04T00:54:48;0.50;99.90
15777;DHT22;7989;51.198;6.676;2023-12-04T00:57:15;0.50;99.90
15777;DHT22;7989;51.198;6.676;2023-12-04T00:59:41;0.50;99.90
15777;DHT22;7989;51.198;6.676;2023-12-04T01:02:08;0.50;99.90
15777;DHT22;7989;51.198;6.676;2023-12-04T01:04:35;0.50;99.90
15777;DHT22;7989;51.198;6.676;2023-12-04T01:07:03;0.50;99.90
15777;DHT22;7989;51.198;6.676;2023-12-04T01:09:30;0.50;99.90
15777;DHT22;7989;51.198;6.676;2023-12-04T01:11:57;0.50;99.90
15777;DHT22;7989;51.198;6.676;2023-12-04T01:14:24;0.50;99.90
15777;DHT22;7989;51.198;6.676;2023-12-04T01:16:50;0.50;99.90
15777;DHT22;7989;51.198;6.676;2023-12-04T01:19:17;0.50;99.90
15777;DHT22;7989;51.198;6.676;2023-12-04T01:21:44;0.50;99.90
15777;DHT22;7989;51.198;6.676;2023-12-04T01:24:13;0.50;99.90
15777;DHT22;7989;51.198;6.676;2023-12-04T01:26:40;0.50;99.90
15777;DHT22;7989;51.198;6.676;2023-12-04T01:29:07;0.60;99.90
15777;DHT22;7989;51.198;6.676;2023-12-04T01:31:34;0.60;99.90
15777;DHT22;7989;51.198;6.676;2023-12-04T01:34:01;0.50;99.90
15777;DHT22;7989;51.198;6.676;2023-12-04T01:36:28;0.50;99.90
15777;DHT22;7989;51.198;6.676;2023-12-04T01:38:55;0.60;99.90
15777;DHT22;7989;51.198;6.676;2023-12-04T01:41:23;0.60;99.90
15777;DHT22;7989;51.198;6.676;2023-12-04T01:43:50;0.60;99.90
15777;DHT22;7989;51.198;6.676;2023-12-04T01:46:17;0.60;99.90
15777;DHT22;7989;51.198;6.676;2023-12-04T01:48:45;0.60;99.90
15777;DHT22;7989;51.198;6.676;2023-12-04T01:51:12;0.60;99.90
15777;DHT22;7989;51.198;6.676;2023-12-04T01:53:40;0.60;99.90
15777;DHT22;7989;51.198;6.676;2023-12-04T01:56:09;0.60;99.90
15777;DHT22;7989;51.198;6.676;2023-12-04T01:58:38;0.60;99.90
15777;DHT22;7989;51.198;6.676;2023-12-04T02:01:05;0.60;99.90
15777;DHT22;7989;51.198;6.676;2023-12-04T02:03:33;0.60;99.90
15777;DHT22;7989;51.198;6.676;2023-12-04T02:06:00;0.60;99.90
15777;DHT22;7989;51.198;6.676;2023-12-04T02:08:29;0.60;99.90
15777;DHT22;7989;51.198;6.676;2023-12-04T02:10:56;0.60;99.90
15777;DHT22;7989;51.198;6.676;2023-12-04T02:13:23;0.60;99.90
15777;DHT22;7989;51.198;6.676;2023-12-04T02:15:54;0.60;99.90
15777;DHT22;7989;51.198;6.676;2023-12-04T02:18:21;0.60;99.90
15777;DHT22;7989;51.198;6.676;2023-12-04T02:20:48;0.60;99.90
15777;DHT22;7989;51.198;6.676;2023-12-04T02:23:15;0.60;99.90
15777;DHT22;7989;51.198;6.676;2023-12-04T02:25:43;0.60;99.90
15777;DHT22;7989;51.198;6.676;2023-12-04T02:28:13;0.60;99.90
15777;DHT22;7989;51.198;6.676;2023-12-04T02:30:42;0.60;99.90
15777;DHT22;7989;51.198;6.676;2023-12-04T02:33:11;0.60;99.90
15777;DHT22;7989;51.198;6.676;2023-12-04T02:35:39;0.60;99.90
15777;DHT22;7989;51.198;6.676;2023-12-04T02:38:07;0.70;99.90
15777;DHT22;7989;51.198;6.676;2023-12-04T02:40:34;0.70;99.90
15777;DHT22;7989;51.198;6.676;2023-12-04T02:43:02;0.60;99.90
15777;DHT22;7989;51.198;6.676;2023-12-04T02:45:29;0.70;99.90
15777;DHT22;7989;51.198;6.676;2023-12-04T02:47:56;0.70;99.90
15777;DHT22;7989;51.198;6.676;2023-12-04T02:50:23;0.60;99.90
15777;DHT22;7989;51.198;6.676;2023-12-04T02:52:49;0.70;99.90
15777;DHT22;7989;51.198;6.676;2023-12-04T02:55:16;0.70;99.90
15777;DHT22;7989;51.198;6.676;2023-12-04T02:57:43;0.70;99.90
15777;DHT22;7989;51.198;6.676;2023-12-04T03:00:12;0.70;99.90
15777;DHT22;7989;51.198;6.676;2023-12-04T03:02:39;0.70;99.90
15777;DHT22;7989;51.198;6.676;2023-12-04T03:05:06;0.70;99.90
15777;DHT22;7989;51.198;6.676;2023-12-04T03:07:33;0.70;99.90
15777;DHT22;7989;51.198;6.676;2023-12-04T03:10:00;0.60;99.90
15777;DHT22;7989;51.198;6.676;2023-12-04T03:12:26;0.60;99.90
15777;DHT22;7989;51.198;6.676;2023-12-04T03:14:53;0.70;99.90
15777;DHT22;7989;51.198;6.676;2023-12-04T03:17:21;0.60;99.90
15777;DHT22;7989;51.198;6.676;2023-12-04T03:19:48;0.60;99.90
15777;DHT22;7989;51.198;6.676;2023-12-04T03:22:17;0.60;99.90
15777;DHT22;7989;51.198;6.676;2023-12-04T03:24:43;0.60;99.90
15777;DHT22;7989;51.198;6.676;2023-12-04T03:27:11;0.60;99.90
15777;DHT22;7989;51.198;6.676;2023-12-04T03:29:37;0.60;99.90
15777;DHT22;7989;51.198;6.676;2023-12-04T03:32:04;0.60;99.90
15777;DHT22;7989;51.198;6.676;2023-12-04T03:34:33;0.70;99.90
15777;DHT22;7989;51.198;6.676;2023-12-04T03:36:59;0.60;99.90
15777;DHT22;7989;51.198;6.676;2023-12-04T03:39:26;0.60;99.90
15777;DHT22;7989;51.198;6.676;2023-12-04T03:41:53;0.60;99.90
15777;DHT22;7989;51.198;6.676;2023-12-04T03:44:20;0.60;99.90
15777;DHT22;7989;51.198;6.676;2023-12-04T03:46:47;0.60;99.90
15777;DHT22;7989;51.198;6.676;2023-12-04T03:49:13;0.60;99.90
15777;DHT22;7989;51.198;6.676;2023-12-04T03:51:42;0.60;99.90
15777;DHT22;7989;51.198;6.676;2023-12-04T03:54:08;0.70;99.90
15777;DHT22;7989;51.198;6.676;2023-12-04T03:56:35;0.70;99.90
15777;DHT22;7989;51.198;6.676;2023-12-04T03:59:02;0.70;99.90
15777;DHT22;7989;51.198;6.676;2023-12-04T04:01:29;0.70;99.90
15777;DHT22;7989;51.198;6.676;2023-12-04T04:03:55;0.70;99.90
15777;DHT22;7989;51.198;6.676;2023-12-04T04:06:22;0.70;99.90
15777;DHT22;7989;51.198;6.676;2023-12-04T04:08:50;0.70;99.90
15777;DHT22;7989;51.198;6.676;2023-12-04T04:11:18;0.70;99.90
15777;DHT22;7989;51.198;6.676;2023-12-04T04:13:44;0.70;99.90
15777;DHT22;7989;51.198;6.676;2023-12-04T04:16:14;0.70;99.90
15777;DHT22;7989;51.198;6.676;2023-12-04T04:18:41;0.80;99.90
15777;DHT22;7989;51.198;6.676;2023-12-04T04:21:08;0.70;99.90
15777;DHT22;7989;51.198;6.676;2023-12-04T04:23:35;0.70;99.90
15777;DHT22;7989;51.198;6.676;2023-12-04T04:26:04;0.70;99.90
15777;DHT22;7989;51.198;6.676;2023-12-04T04:28:31;0.70;99.90
15777;DHT22;7989;51.198;6.676;2023-12-04T04:30:58;0.70;99.90
15777;DHT22;7989;51.198;6.676;2023-12-04T04:33:25;0.70;99.90
15777;DHT22;7989;51.198;6.676;2023-12-04T04:35:52;0.70;99.90
15777;DHT22;7989;51.198;6.676;2023-12-04T04:38:19;0.70;99.90
15777;DHT22;7989;51.198;6.676;2023-12-04T04:40:45;0.70;99.90
15777;DHT22;7989;51.198;6.676;2023-12-04T04:43:14;0.70;99.90
15777;DHT22;7989;51.198;6.676;2023-12-04T04:45:40;0.70;99.90
15777;DHT22;7989;51.198;6.676;2023-12-04T04:48:07;0.70;99.90
15777;DHT22;7989;51.198;6.676;2023-12-04T04:50:34;0.70;99.90
15777;DHT22;7989;51.198;6.676;2023-12-04T04:53:01;0.70;99.90
15777;DHT22;7989;51.198;6.676;2023-12-04T04:55:28;0.70;99.90
15777;DHT22;7989;51.198;6.676;2023-12-04T04:57:56;0.70;99.90
15777;DHT22;7989;51.198;6.676;2023-12-04T05:00:24;0.70;99.90
15777;DHT22;7989;51.198;6.676;2023-12-04T05:02:51;0.70;99.90
15777;DHT22;7989;51.198;6.676;2023-12-04T05:05:17;0.70;99.90
15777;DHT22;7989;51.198;6.676;2023-12-04T05:07:44;0.70;99.90
15777;DHT22;7989;51.198;6.676;2023-12-04T05:10:11;0.70;99.90
15777;DHT22;7989;51.198;6.676;2023-12-04T05:12:37;0.70;99.90
15777;DHT22;7989;51.198;6.676;2023-12-04T05:15:05;0.70;99.90
15777;DHT22;7989;51.198;6.676;2023-12-04T05:17:33;0.70;99.90
15777;DHT22;7989;51.198;6.676;2023-12-04T05:20:00;0.70;99.90
15777;DHT22;7989;51.198;6.676;2023-12-04T05:22:27;0.70;99.90
15777;DHT22;7989;51.198;6.676;2023-12-04T05:24:54;0.70;99.90
15777;DHT22;7989;51.198;6.676;2023-12-04T05:27:20;0.70;99.90
15777;DHT22;7989;51.198;6.676;2023-12-04T05:29:47;0.70;99.90
15777;DHT22;7989;51.198;6.676;2023-12-04T05:32:14;0.70;99.90
15777;DHT22;7989;51.198;6.676;2023-12-04T05:34:42;0.60;99.90
15777;DHT22;7989;51.198;6.676;2023-12-04T05:37:09;0.60;99.90
15777;DHT22;7989;51.198;6.676;2023-12-04T05:39:36;0.70;99.90
15777;DHT22;7989;51.198;6.676;2023-12-04T05:42:03;0.70;99.90
15777;DHT22;7989;51.198;6.676;2023-12-04T05:44:30;0.70;99.90
15777;DHT22;7989;51.198;6.676;2023-12-04T05:46:57;0.70;99.90
15777;DHT22;7989;51.198;6.676;2023-12-04T05:49:24;0.70;99.90
15777;DHT22;7989;51.198;6.676;2023-12-04T05:51:52;0.70;99.90
15777;DHT22;7989;51.198;6.676;2023-12-04T05:54:19;0.70;99.90
15777;DHT22;7989;51.198;6.676;2023-12-04T05:56:46;0.70;99.90
15777;DHT22;7989;51.198;6.676;2023-12-04T05:59:12;0.70;99.90
15777;DHT22;7989;51.198;6.676;2023-12-04T06:01:39;0.70;99.90
15777;DHT22;7989;51.198;6.676;2023-12-04T06:04:06;0.70;99.90
15777;DHT22;7989;51.198;6.676;2023-12-04T06:06:33;0.70;99.90
15777;DHT22;7989;51.198;6.676;2023-12-04T06:09:01;0.70;99.90
15777;DHT22;7989;51.198;6.676;2023-12-04T06:11:28;0.70;99.90
15777;DHT22;7989;51.198;6.676;2023-12-04T06:13:54;0.80;99.90
15777;DHT22;7989;51.198;6.676;2023-12-04T06:16:21;0.80;99.90
15777;DHT22;7989;51.198;6.676;2023-12-04T06:18:48;0.80;99.90
15777;DHT22;7989;51.198;6.676;2023-12-04T06:21:15;0.80;99.90
15777;DHT22;7989;51.198;6.676;2023-12-04T06:23:42;0.80;99.90
15777;DHT22;7989;51.198;6.676;2023-12-04T06:26:12;0.70;99.90
15777;DHT22;7989;51.198;6.676;2023-12-04T06:28:39;0.70;99.90
15777;DHT22;7989;51.198;6.676;2023-12-04T06:31:07;0.80;99.90
15777;DHT22;7989;51.198;6.676;2023-12-04T06:33:34;0.80;99.90
15777;DHT22;7989;51.198;6.676;2023-12-04T06:36:02;0.80;99.90
15777;DHT22;7989;51.198;6.676;2023-12-04T06:38:32;0.80;99.90
15777;DHT22;7989;51.198;6.676;2023-12-04T06:41:00;0.80;99.90
15777;DHT22;7989;51.198;6.676;2023-12-04T06:43:28;0.80;99.90
15777;DHT22;7989;51.198;6.676;2023-12-04T06:45:56;0.80;99.90
15777;DHT22;7989;51.198;6.676;2023-12-04T06:48:25;0.80;99.90
15777;DHT22;7989;51.198;6.676;2023-12-04T06:50:51;0.80;99.90
15777;DHT22;7989;51.198;6.676;2023-12-04T06:53:18;0.80;99.90
15777;DHT22;7989;51.198;6.676;2023-12-04T06:55:45;0.90;99.90
15777;DHT22;7989;51.198;6.676;2023-12-04T06:58:12;0.80;99.90
15777;DHT22;7989;51.198;6.676;2023-12-04T07:00:40;0.90;99.90
15777;DHT22;7989;51.198;6.676;2023-12-04T07:03:07;0.90;99.90
15777;DHT22;7989;51.198;6.676;2023-12-04T07:05:34;0.90;99.90
15777;DHT22;7989;51.198;6.676;2023-12-04T07:08:00;0.90;99.90
15777;DHT22;7989;51.198;6.676;2023-12-04T07:10:28;0.90;99.90
15777;DHT22;7989;51.198;6.676;2023-12-04T07:12:55;0.90;99.90
15777;DHT22;7989;51.198;6.676;2023-12-04T07:15:22;0.90;99.90
15777;DHT22;7989;51.198;6.676;2023-12-04T07:17:50;0.90;99.90
15777;DHT22;7989;51.198;6.676;2023-12-04T07:20:17;0.80;99.90
15777;DHT22;7989;51.198;6.676;2023-12-04T07:22:44;0.80;99.90
15777;DHT22;7989;51.198;6.676;2023-12-04T07:25:11;0.80;99.90
15777;DHT22;7989;51.198;6.676;2023-12-04T07:27:38;0.80;99.90
15777;DHT22;7989;51.198;6.676;2023-12-04T07:30:06;0.80;99.90
15777;DHT22;7989;51.198;6.676;2023-12-04T07:32:33;0.80;99.90
15777;DHT22;7989;51.198;6.676;2023-12-04T07:35:02;0.80;99.90
15777;DHT22;7989;51.198;6.676;2023-12-04T07:37:29;0.80;99.90
15777;DHT22;7989;51.198;6.676;2023-12-04T07:39:57;0.80;99.90
15777;DHT22;7989;51.198;6.676;2023-12-04T07:42:24;0.80;99.90
15777;DHT22;7989;51.198;6.676;2023-12-04T07:44:51;0.90;99.90
15777;DHT22;7989;51.198;6.676;2023-12-04T07:47:18;0.90;99.90
15777;DHT22;7989;51.198;6.676;2023-12-04T07:49:45;0.90;99.90
15777;DHT22;7989;51.198;6.676;2023-12-04T07:52:13;0.90;99.90
15777;DHT22;7989;51.198;6.676;2023-12-04T07:54:40;0.90;99.90
15777;DHT22;7989;51.198;6.676;2023-12-04T07:57:06;0.90;99.90
15777;DHT22;7989;51.198;6.676;2023-12-04T07:59:33;0.90;99.90
15777;DHT22;7989;51.198;6.676;2023-12-04T08:02:00;1.00;99.90
15777;DHT22;7989;51.198;6.676;2023-12-04T08:04:27;1.10;99.90
15777;DHT22;7989;51.198;6.676;2023-12-04T08:06:54;1.10;99.90
15777;DHT22;7989;51.198;6.676;2023-12-04T08:09:22;1.10;99.90
15777;DHT22;7989;51.198;6.676;2023-12-04T08:11:49;1.10;99.90
15777;DHT22;7989;51.198;6.676;2023-12-04T08:14:16;1.20;99.90
15777;DHT22;7989;51.198;6.676;2023-12-04T08:16:43;1.20;99.90
15777;DHT22;7989;51.198;6.676;2023-12-04T08:19:10;1.20;99.90
15777;DHT22;7989;51.198;6.676;2023-12-04T08:21:37;1.30;99.90
15777;DHT22;7989;51.198;6.676;2023-12-04T08:24:04;1.30;99.90
15777;DHT22;7989;51.198;6.676;2023-12-04T08:26:32;1.40;99.90
15777;DHT22;7989;51.198;6.676;2023-12-04T08:28:59;1.40;99.90
15777;DHT22;7989;51.198;6.676;2023-12-04T08:31:26;1.40;99.90
15777;DHT22;7989;51.198;6.676;2023-12-04T08:33:53;1.40;99.90
15777;DHT22;7989;51.198;6.676;2023-12-04T08:36:20;1.50;99.90
15777;DHT22;7989;51.198;6.676;2023-12-04T08:38:46;1.50;99.90
15777;DHT22;7989;51.198;6.676;2023-12-04T08:41:13;1.50;99.90
15777;DHT22;7989;51.198;6.676;2023-12-04T08:43:41;1.50;99.90
15777;DHT22;7989;51.198;6.676;2023-12-04T08:46:12;1.50;99.90
15777;DHT22;7989;51.198;6.676;2023-12-04T08:48:40;1.50;99.90
15777;DHT22;7989;51.198;6.676;2023-12-04T08:51:07;1.50;99.90
15777;DHT22;7989;51.198;6.676;2023-12-04T08:53:34;1.50;99.90
15777;DHT22;7989;51.198;6.676;2023-12-04T08:56:02;1.50;99.90
15777;DHT22;7989;51.198;6.676;2023-12-04T08:58:29;1.50;99.90
15777;DHT22;7989;51.198;6.676;2023-12-04T09:00:57;1.50;99.90
15777;DHT22;7989;51.198;6.676;2023-12-04T09:03:24;1.60;99.90
15777;DHT22;7989;51.198;6.676;2023-12-04T09:05:51;1.60;99.90
15777;DHT22;7989;51.198;6.676;2023-12-04T09:08:18;1.60;99.90
15777;DHT22;7989;51.198;6.676;2023-12-04T09:10:45;1.60;99.90
15777;DHT22;7989;51.198;6.676;2023-12-04T09:13:13;1.60;99.90
15777;DHT22;7989;51.198;6.676;2023-12-04T09:15:40;1.60;99.90
15777;DHT22;7989;51.198;6.676;2023-12-04T09:18:08;1.50;99.90
15777;DHT22;7989;51.198;6.676;2023-12-04T09:20:35;1.60;99.90
15777;DHT22;7989;51.198;6.676;2023-12-04T09:23:02;1.60;99.90
15777;DHT22;7989;51.198;6.676;2023-12-04T09:25:28;1.60;99.90
15777;DHT22;7989;51.198;6.676;2023-12-04T09:27:55;1.60;99.90
15777;DHT22;7989;51.198;6.676;2023-12-04T09:30:22;1.60;99.90
15777;DHT22;7989;51.198;6.676;2023-12-04T09:32:49;1.60;99.90
15777;DHT22;7989;51.198;6.676;2023-12-04T09:35:17;1.60;99.90
15777;DHT22;7989;51.198;6.676;2023-12-04T09:37:44;1.60;99.90
15777;DHT22;7989;51.198;6.676;2023-12-04T09:40:14;1.60;99.90
15777;DHT22;7989;51.198;6.676;2023-12-04T09:42:41;1.60;99.90
15777;DHT22;7989;51.198;6.676;2023-12-04T09:45:09;1.60;99.90
15777;DHT22;7989;51.198;6.676;2023-12-04T09:47:36;1.60;99.90
15777;DHT22;7989;51.198;6.676;2023-12-04T09:50:04;1.70;99.90
15777;DHT22;7989;51.198;6.676;2023-12-04T09:52:34;1.70;99.90
15777;DHT22;7989;51.198;6.676;2023-12-04T09:55:01;1.70;99.90
15777;DHT22;7989;51.198;6.676;2023-12-04T09:57:29;1.80;99.90
15777;DHT22;7989;51.198;6.676;2023-12-04T09:59:58;1.80;99.90
15777;DHT22;7989;51.198;6.676;2023-12-04T10:02:26;1.80;99.90
15777;DHT22;7989;51.198;6.676;2023-12-04T10:04:53;1.80;99.90
15777;DHT22;7989;51.198;6.676;2023-12-04T10:07:20;1.90;99.90
15777;DHT22;7989;51.198;6.676;2023-12-04T10:09:48;1.90;99.90
15777;DHT22;7989;51.198;6.676;2023-12-04T10:12:19;1.90;99.90
15777;DHT22;7989;51.198;6.676;2023-12-04T10:15:02;1.90;99.90
15777;DHT22;7989;51.198;6.676;2023-12-04T10:17:33;1.90;99.90
15777;DHT22;7989;51.198;6.676;2023-12-04T10:20:05;1.90;99.90
15777;DHT22;7989;51.198;6.676;2023-12-04T10:22:38;2.00;99.90
15777;DHT22;7989;51.198;6.676;2023-12-04T10:25:16;2.00;99.90
15777;DHT22;7989;51.198;6.676;2023-12-04T10:27:43;2.00;99.90
15777;DHT22;7989;51.198;6.676;2023-12-04T10:30:22;2.00;99.90
15777;DHT22;7989;51.198;6.676;2023-12-04T10:32:49;2.00;99.90
15777;DHT22;7989;51.198;6.676;2023-12-04T10:35:20;2.00;99.90
15777;DHT22;7989;51.198;6.676;2023-12-04T10:37:48;2.00;99.90
15777;DHT22;7989;51.198;6.676;2023-12-04T10:40:24;2.10;99.90
15777;DHT22;7989;51.198;6.676;2023-12-04T10:42:51;2.10;99.90
15777;DHT22;7989;51.198;6.676;2023-12-04T10:45:18;2.10;99.90
15777;DHT22;7989;51.198;6.676;2023-12-04T10:47:48;2.10;99.90
15777;DHT22;7989;51.198;6.676;2023-12-04T10:50:17;2.20;99.90
15777;DHT22;7989;51.198;6.676;2023-12-04T10:52:46;2.20;99.90
15777;DHT22;7989;51.198;6.676;2023-12-04T10:55:14;2.20;99.90
15777;DHT22;7989;51.198;6.676;2023-12-04T10:57:43;2.20;99.90
15777;DHT22;7989;51.198;6.676;2023-12-04T11:00:12;2.10;99.90
15777;DHT22;7989;51.198;6.676;2023-12-04T11:02:43;2.10;99.90
15777;DHT22;7989;51.198;6.676;2023-12-04T11:05:15;2.10;99.90
15777;DHT22;7989;51.198;6.676;2023-12-04T11:07:46;2.20;99.90
15777;DHT22;7989;51.198;6.676;2023-12-04T11:10:15;2.20;99.90
15777;DHT22;7989;51.198;6.676;2023-12-04T11:12:45;2.20;99.90
15777;DHT22;7989;51.198;6.676;2023-12-04T11:15:16;2.20;99.90
15777;DHT22;7989;51.198;6.676;2023-12-04T11:17:49;2.20;99.90
15777;DHT22;7989;51.198;6.676;2023-12-04T11:20:19;2.10;99.90
15777;DHT22;7989;51.198;6.676;2023-12-04T11:22:48;2.00;99.90
15777;DHT22;7989;51.198;6.676;2023-12-04T11:25:16;2.00;99.90
15777;DHT22;7989;51.198;6.676;2023-12-04T11:27:44;2.00;99.90
15777;DHT22;7989;51.198;6.676;2023-12-04T11:30:12;2.00;99.90
15777;DHT22;7989;51.198;6.676;2023-12-04T11:32:46;2.00;99.90
15777;DHT22;7989;51.198;6.676;2023-12-04T11:35:14;1.90;99.90
15777;DHT22;7989;51.198;6.676;2023-12-04T11:37:43;1.90;99.90
15777;DHT22;7989;51.198;6.676;2023-12-04T11:40:11;1.80;99.90
15777;DHT22;7989;51.198;6.676;2023-12-04T11:42:39;1.80;99.90
15777;DHT22;7989;51.198;6.676;2023-12-04T11:45:08;1.80;99.90
15777;DHT22;7989;51.198;6.676;2023-12-04T11:47:51;1.80;99.90
15777;DHT22;7989;51.198;6.676;2023-12-04T11:50:19;1.70;99.90
15777;DHT22;7989;51.198;6.676;2023-12-04T11:52:46;1.70;99.90
15777;DHT22;7989;51.198;6.676;2023-12-04T11:55:16;1.60;99.90
15777;DHT22;7989;51.198;6.676;2023-12-04T11:57:43;1.60;99.90
15777;DHT22;7989;51.198;6.676;2023-12-04T12:00:19;1.60;99.90
15777;DHT22;7989;51.198;6.676;2023-12-04T12:02:50;1.60;99.90
15777;DHT22;7989;51.198;6.676;2023-12-04T12:05:26;1.60;99.90
15777;DHT22;7989;51.198;6.676;2023-12-04T12:07:53;1.60;99.90
15777;DHT22;7989;51.198;6.676;2023-12-04T12:10:21;1.50;99.90
15777;DHT22;7989;51.198;6.676;2023-12-04T12:12:48;1.50;99.90
15777;DHT22;7989;51.198;6.676;2023-12-04T12:15:16;1.50;99.90
15777;DHT22;7989;51.198;6.676;2023-12-04T12:17:43;1.40;99.90
15777;DHT22;7989;51.198;6.676;2023-12-04T12:20:11;1.40;99.90
15777;DHT22;7989;51.198;6.676;2023-12-04T12:22:39;1.50;99.90
15777;DHT22;7989;51.198;6.676;2023-12-04T12:25:08;1.40;99.90
15777;DHT22;7989;51.198;6.676;2023-12-04T12:27:35;1.40;99.90
15777;DHT22;7989;51.198;6.676;2023-12-04T12:30:02;1.30;99.90
15777;DHT22;7989;51.198;6.676;2023-12-04T12:32:31;1.30;99.90
15777;DHT22;7989;51.198;6.676;2023-12-04T12:34:58;1.40;99.90
15777;DHT22;7989;51.198;6.676;2023-12-04T12:37:25;1.30;99.90
15777;DHT22;7989;51.198;6.676;2023-12-04T12:39:52;1.30;99.90
15777;DHT22;7989;51.198;6.676;2023-12-04T12:42:23;1.30;99.90
15777;DHT22;7989;51.198;6.676;2023-12-04T12:44:50;1.30;99.90
15777;DHT22;7989;51.198;6.676;2023-12-04T12:47:17;1.30;99.90
15777;DHT22;7989;51.198;6.676;2023-12-04T12:49:45;1.30;99.90
15777;DHT22;7989;51.198;6.676;2023-12-04T12:52:13;1.40;99.90
15777;DHT22;7989;51.198;6.676;2023-12-04T12:54:41;1.40;99.90
15777;DHT22;7989;51.198;6.676;2023-12-04T12:57:08;1.40;99.90
15777;DHT22;7989;51.198;6.676;2023-12-04T12:59:37;1.40;99.90
15777;DHT22;7989;51.198;6.676;2023-12-04T13:02:05;1.40;99.90
15777;DHT22;7989;51.198;6.676;2023-12-04T13:04:36;1.50;99.90
15777;DHT22;7989;51.198;6.676;2023-12-04T13:07:04;1.50;99.90
15777;DHT22;7989;51.198;6.676;2023-12-04T13:09:32;1.50;99.90
15777;DHT22;7989;51.198;6.676;2023-12-04T13:12:01;1.60;99.90
15777;DHT22;7989;51.198;6.676;2023-12-04T13:14:28;1.50;99.90
15777;DHT22;7989;51.198;6.676;2023-12-04T13:16:54;1.50;99.90
15777;DHT22;7989;51.198;6.676;2023-12-04T13:19:22;1.60;99.90
15777;DHT22;7989;51.198;6.676;2023-12-04T13:21:49;1.50;99.90
15777;DHT22;7989;51.198;6.676;2023-12-04T13:24:17;1.50;99.90
15777;DHT22;7989;51.198;6.676;2023-12-04T13:26:44;1.50;99.90
15777;DHT22;7989;51.198;6.676;2023-12-04T13:29:11;1.50;99.90
15777;DHT22;7989;51.198;6.676;2023-12-04T13:31:39;1.50;99.90
15777;DHT22;7989;51.198;6.676;2023-12-04T13:34:06;1.50;99.90
15777;DHT22;7989;51.198;6.676;2023-12-04T13:36:34;1.50;99.90
15777;DHT22;7989;51.198;6.676;2023-12-04T13:39:02;1.60;99.90
15777;DHT22;7989;51.198;6.676;2023-12-04T13:41:31;1.60;99.90
15777;DHT22;7989;51.198;6.676;2023-12-04T13:44:15;1.60;99.90
15777;DHT22;7989;51.198;6.676;2023-12-04T13:46:42;1.60;99.90
15777;DHT22;7989;51.198;6.676;2023-12-04T13:49:08;1.60;99.90
15777;DHT22;7989;51.198;6.676;2023-12-04T13:51:35;1.60;99.90
15777;DHT22;7989;51.198;6.676;2023-12-04T13:54:05;1.60;99.90
15777;DHT22;7989;51.198;6.676;2023-12-04T13:56:47;1.60;99.90
15777;DHT22;7989;51.198;6.676;2023-12-04T13:59:19;1.60;99.90
15777;DHT22;7989;51.198;6.676;2023-12-04T14:01:48;1.70;99.90
15777;DHT22;7989;51.198;6.676;2023-12-04T14:04:17;1.60;99.90
15777;DHT22;7989;51.198;6.676;2023-12-04T14:06:44;1.70;99.90
15777;DHT22;7989;51.198;6.676;2023-12-04T14:09:11;1.70;99.90
15777;DHT22;7989;51.198;6.676;2023-12-04T14:11:43;1.70;99.90
15777;DHT22;7989;51.198;6.676;2023-12-04T14:14:12;1.80;99.90
15777;DHT22;7989;51.198;6.676;2023-12-04T14:16:39;1.70;99.90
15777;DHT22;7989;51.198;6.676;2023-12-04T14:19:07;1.70;99.90
15777;DHT22;7989;51.198;6.676;2023-12-04T14:21:34;1.80;99.90
15777;DHT22;7989;51.198;6.676;2023-12-04T14:24:01;1.70;99.90
15777;DHT22;7989;51.198;6.676;2023-12-04T14:26:28;1.80;99.90
15777;DHT22;7989;51.198;6.676;2023-12-04T14:28:55;1.80;99.90
15777;DHT22;7989;51.198;6.676;2023-12-04T14:31:24;1.80;99.90
15777;DHT22;7989;51.198;6.676;2023-12-04T14:33:54;1.80;99.90
15777;DHT22;7989;51.198;6.676;2023-12-04T14:36:21;1.90;99.90
15777;DHT22;7989;51.198;6.676;2023-12-04T14:38:48;1.90;99.90
15777;DHT22;7989;51.198;6.676;2023-12-04T14:41:15;1.90;99.90
15777;DHT22;7989;51.198;6.676;2023-12-04T14:43:42;2.00;99.90
15777;DHT22;7989;51.198;6.676;2023-12-04T14:46:09;2.00;99.90
15777;DHT22;7989;51.198;6.676;2023-12-04T14:48:38;2.00;99.90
15777;DHT22;7989;51.198;6.676;2023-12-04T14:51:07;2.00;99.90
15777;DHT22;7989;51.198;6.676;2023-12-04T14:53:35;2.00;99.90
15777;DHT22;7989;51.198;6.676;2023-12-04T14:56:11;2.00;99.90
15777;DHT22;7989;51.198;6.676;2023-12-04T14:58:55;1.90;99.90
15777;DHT22;7989;51.198;6.676;2023-12-04T15:01:42;2.00;99.90
15777;DHT22;7989;51.198;6.676;2023-12-04T15:04:27;2.00;99.90
15777;DHT22;7989;51.198;6.676;2023-12-04T15:07:10;2.00;99.90
15777;DHT22;7989;51.198;6.676;2023-12-04T15:09:55;2.00;99.90
15777;DHT22;7989;51.198;6.676;2023-12-04T15:12:39;2.10;99.90
15777;DHT22;7989;51.198;6.676;2023-12-04T15:15:32;2.10;99.90
15777;DHT22;7989;51.198;6.676;2023-12-04T15:18:07;2.10;99.90
15777;DHT22;7989;51.198;6.676;2023-12-04T15:20:53;2.10;99.90
15777;DHT22;7989;51.198;6.676;2023-12-04T15:23:19;2.00;99.90
15777;DHT22;7989;51.198;6.676;2023-12-04T15:25:46;2.00;99.90
15777;DHT22;7989;51.198;6.676;2023-12-04T15:28:12;1.90;99.90
15777;DHT22;7989;51.198;6.676;2023-12-04T15:30:40;1.90;99.90
15777;DHT22;7989;51.198;6.676;2023-12-04T15:33:06;1.90;99.90
15777;DHT22;7989;51.198;6.676;2023-12-04T15:35:33;1.70;99.90
15777;DHT22;7989;51.198;6.676;2023-12-04T15:38:00;1.70;99.90
15777;DHT22;7989;51.198;6.676;2023-12-04T15:40:27;1.70;99.90
15777;DHT22;7989;51.198;6.676;2023-12-04T15:42:53;1.60;99.90
15777;DHT22;7989;51.198;6.676;2023-12-04T15:45:20;1.50;99.90
15777;DHT22;7989;51.198;6.676;2023-12-04T15:47:46;1.50;99.90
15777;DHT22;7989;51.198;6.676;2023-12-04T15:50:13;1.50;99.90
15777;DHT22;7989;51.198;6.676;2023-12-04T15:52:39;1.50;99.90
15777;DHT22;7989;51.198;6.676;2023-12-04T15:55:09;1.50;99.90
15777;DHT22;7989;51.198;6.676;2023-12-04T15:57:36;1.50;99.90
15777;DHT22;7989;51.198;6.676;2023-12-04T16:00:03;1.50;99.90
15777;DHT22;7989;51.198;6.676;2023-12-04T16:02:32;1.50;99.90
15777;DHT22;7989;51.198;6.676;2023-12-04T16:04:59;1.50;99.90
15777;DHT22;7989;51.198;6.676;2023-12-04T16:07:25;1.50;99.90